Weersoverzicht van METAR-stations binnen 150 km

EHRD - Rotterdam Airport
Afstand tot weerstation: ZO 28 km
Update: 24-10-2021 11:25
Helder
Helder
 Wind van ZZO
Wind: ZZO 19 km/h
Temperatuur: 10°C
Gevoelstemperatuur: 7°C
Dauwpunt: 5°C
Luchtvochtigheid: 71%
Luchtdruk: 1022 hPa
Bewolking: Helder
Zicht: 10 km
2021/10/24 09:25 EHRD 240925Z AUTO 16010KT 130V190 9999 NCD 10/05 Q1022 NOSIG
EHSC - Goeree Le Sea (Platform ter hoogte van Zeeland)
Afstand tot weerstation: WZW 36 km
Update: 24-10-2021 11:25

 Wind van Z
Wind: Z 28 km/h
Temperatuur: 10°C
Gevoelstemperatuur: 7°C
Dauwpunt: 6°C
Luchtvochtigheid: 76%
Luchtdruk: 1022 hPa
Zicht: 10 km
2021/10/24 09:25 EHSC 240925Z AUTO 18015KT 9999 ///////// 10/06 Q1022 W15/H8
 
EHAM - A'dam Schiphol
Afstand tot weerstation: ONO 51 km
Update: 24-10-2021 11:25
Helder
Helder
 Wind van ZZO
Wind: ZZO 17 km/h
Temperatuur: 9°C
Gevoelstemperatuur: 7°C
Dauwpunt: 6°C
Luchtvochtigheid: 82%
Luchtdruk: 1023 hPa
Overzicht: Helder
Zicht: Meer dan 10 km
2021/10/24 09:25 EHAM 240925Z 16009KT 130V190 CAVOK 09/06 Q1023 NOSIG
EHSA - Euro Platform (Ter hoogte van Zeeland)
Afstand tot weerstation: W 58 km
Update: 24-10-2021 11:25

 Wind van Z
Wind: Z 31 km/h
Temperatuur: 11°C
Dauwpunt: 7°C
Luchtvochtigheid: 77%
Luchtdruk: 1021 hPa
Zicht: 10 km
2021/10/24 09:25 EHSA 240925Z AUTO 17017KT 9999 ///////// 11/07 Q1021 W15/H10
 
EHPG - P11-B Sea (Platform ter hoogte van Zuid Holland)
Afstand tot weerstation: NW 60 km
Update: 24-10-2021 11:25

 Wind van Variabel
Wind: Variabel 0 km/h
2021/10/24 09:25 EHPG 240925Z AUTO /////KT //// // ////// ///// Q//// RE//
EHWO - Vliegveld Woensdrecht
Afstand tot weerstation: ZZO 65 km
Update: 24-10-2021 11:25
Helder
Helder
 Wind van Z
Wind: Z 11 km/h
Temperatuur: 9°C
Gevoelstemperatuur: 7°C
Dauwpunt: 5°C
Luchtvochtigheid: 76%
Luchtdruk: 1022 hPa
Bewolking: Helder
Zicht: 10 km
2021/10/24 09:25 EHWO 240925Z AUTO 17006KT 110V210 9999 NCD 09/05 Q1022 BLU
 
EHGR - Vliegveld Gilze-Rijen
Afstand tot weerstation: ZO 79 km
Update: 24-10-2021 11:25
Helder
Helder
 Wind van ZZO
Wind: ZZO 13 km/h
Temperatuur: 9°C
Gevoelstemperatuur: 7°C
Dauwpunt: 5°C
Luchtvochtigheid: 76%
Luchtdruk: 1023 hPa
Bewolking: Helder
Zicht: 10 km
2021/10/24 09:25 EHGR 240925Z AUTO 15007KT 110V190 9999 NCD 09/05 Q1023 BLU
EHQE - Hoorn-A Sea (Platform ter hoogte van Noord Holland)
Afstand tot weerstation: N 103 km
Update: 24-10-2021 11:25
Gedeeltelijk bewolkt
Gedeeltelijk bewolkt
 Wind van Z
Wind: Z 41 km/h
Temperatuur: 12°C
Dauwpunt: 6°C
Luchtvochtigheid: 67%
Luchtdruk: 1021 hPa
Bewolking: Gedeeltelijk bewolkt
Zicht: 10 km
2021/10/24 09:25 EHQE 240925Z AUTO 19022KT 9999 NSC 12/06 Q1021
 
EHKD - Marinebasis De Kooy (Den Helder)
Afstand tot weerstation: NNO 114 km
Update: 24-10-2021 11:25
Helder
Helder
 Wind van Z
Wind: Z 17 km/h
Temperatuur: 10°C
Gevoelstemperatuur: 8°C
Dauwpunt: 6°C
Luchtvochtigheid: 76%
Luchtdruk: 1022 hPa
Bewolking: Helder
Zicht: 10 km
2021/10/24 09:25 EHKD 240925Z AUTO 18009KT 140V200 9999 NCD 10/06 Q1022 BLU NOSIG
EHEH - Vliegveld Eindhoven
Afstand tot weerstation: OZO 115 km
Update: 24-10-2021 11:25
Helder
Helder
 Wind van ZO
Wind: ZO 13 km/h
Temperatuur: 9°C
Gevoelstemperatuur: 7°C
Dauwpunt: 5°C
Luchtvochtigheid: 76%
Luchtdruk: 1023 hPa
Bewolking: Helder
Zicht: 10 km
2021/10/24 09:25 EHEH 240925Z AUTO 14007KT 120V180 9999 NCD 09/05 Q1023 BLU NOSIG
 
EHVK - Vliegveld Volkel
Afstand tot weerstation: OZO 124 km
Update: 24-10-2021 11:25
Helder
Helder
 Wind van ZZO
Wind: ZZO 13 km/h
Temperatuur: 8°C
Gevoelstemperatuur: 6°C
Dauwpunt: 5°C
Luchtvochtigheid: 82%
Luchtdruk: 1023 hPa
Bewolking: Helder
Zicht: 10 km
2021/10/24 09:25 EHVK 240925Z AUTO 15007KT 110V170 9999 NCD 08/05 Q1023 BLU
EHDL - Vliegveld Deelen
Afstand tot weerstation: O 128 km
Update: 24-10-2021 11:25
Helder
Helder
 Wind van ZO
Wind: ZO 13 km/h
Temperatuur: 9°C
Gevoelstemperatuur: 7°C
Dauwpunt: 5°C
Luchtvochtigheid: 76%
Luchtdruk: 1024 hPa
Bewolking: Helder
Zicht: 10 km
2021/10/24 09:25 EHDL 240925Z AUTO 14007KT 100V210 9999 NCD 09/05 Q1024 BLU